createdAt,value
2022-10-17T00:00:20.684Z,26.68
2022-10-17T00:02:22.433Z,26.45
2022-10-17T00:04:24.315Z,26.26
2022-10-17T00:06:26.096Z,26.41
2022-10-17T00:08:27.916Z,26.56
2022-10-17T00:10:29.702Z,26.28
2022-10-17T00:12:31.801Z,26.23
2022-10-17T00:14:33.481Z,26.41
2022-10-17T00:16:35.890Z,26.48
2022-10-17T00:18:37.593Z,26.20
2022-10-17T00:20:39.249Z,26.29
2022-10-17T00:22:41.023Z,26.66
2022-10-17T00:24:42.768Z,26.65
2022-10-17T00:26:44.505Z,26.30
2022-10-17T00:28:50.076Z,26.30
2022-10-17T00:30:58.853Z,26.22
2022-10-17T00:33:00.588Z,26.68
2022-10-17T00:35:02.450Z,26.65
2022-10-17T00:37:04.143Z,26.61
2022-10-17T00:39:05.930Z,26.40
2022-10-17T00:41:12.989Z,26.54
2022-10-17T00:43:17.605Z,26.40
2022-10-17T00:45:23.508Z,26.34
2022-10-17T00:47:25.241Z,26.38
2022-10-17T00:49:28.727Z,26.63
2022-10-17T00:51:36.818Z,26.68
2022-10-17T00:53:38.802Z,26.20
2022-10-17T00:55:47.699Z,26.50
2022-10-17T00:57:49.486Z,26.10
2022-10-17T00:59:52.750Z,26.11
2022-10-17T01:02:00.344Z,26.60
2022-10-17T01:04:01.976Z,26.29
2022-10-17T01:06:03.708Z,26.21
2022-10-17T01:08:05.621Z,26.61
2022-10-17T01:10:07.570Z,26.23
2022-10-17T01:12:16.214Z,26.50
2022-10-17T01:14:51.906Z,26.49
2022-10-17T01:17:02.585Z,26.61
2022-10-17T01:19:37.540Z,26.27
2022-10-17T01:22:06.085Z,26.47
2022-10-17T01:24:14.996Z,26.35
2022-10-17T01:26:38.304Z,26.19
2022-10-17T01:29:01.510Z,26.08
2022-10-17T01:31:31.866Z,26.28
2022-10-17T01:33:51.762Z,26.40
2022-10-17T01:36:03.278Z,26.24
2022-10-17T01:38:35.614Z,26.61
2022-10-17T01:40:54.861Z,26.41
2022-10-17T01:43:04.506Z,26.04
2022-10-17T01:45:13.724Z,26.64
2022-10-17T01:47:20.719Z,26.29
2022-10-17T01:49:24.063Z,26.35
2022-10-17T01:51:29.229Z,26.34
2022-10-17T01:53:37.200Z,26.06
2022-10-17T01:55:41.172Z,26.10
2022-10-17T01:58:10.101Z,26.27
2022-10-17T02:00:15.103Z,26.26
2022-10-17T02:02:16.762Z,26.45
2022-10-17T02:04:18.460Z,26.39
2022-10-17T02:06:20.128Z,26.03
2022-10-17T02:08:29.987Z,26.39
2022-10-17T02:10:40.709Z,26.50
2022-10-17T02:12:51.454Z,26.22
2022-10-17T02:14:56.170Z,26.43
2022-10-17T02:17:00.783Z,26.63
2022-10-17T02:19:10.200Z,26.46
2022-10-17T02:21:18.399Z,26.58
2022-10-17T02:23:49.851Z,26.14
2022-10-17T02:26:05.524Z,26.40
2022-10-17T02:28:19.219Z,26.21
2022-10-17T02:30:29.319Z,26.21
2022-10-17T02:32:37.128Z,26.13
2022-10-17T02:34:43.123Z,26.06
2022-10-17T02:36:56.362Z,26.26
2022-10-17T02:38:58.040Z,26.65
2022-10-17T02:40:59.803Z,26.51
2022-10-17T02:43:01.628Z,26.39
2022-10-17T02:45:03.873Z,26.32
2022-10-17T02:47:11.470Z,26.32
2022-10-17T02:49:22.634Z,26.36
2022-10-17T02:51:27.162Z,26.34
2022-10-17T02:53:33.487Z,26.06
2022-10-17T02:55:38.839Z,25.98
2022-10-17T02:57:49.815Z,26.20
2022-10-17T02:59:51.529Z,25.96
2022-10-17T03:01:53.231Z,26.22
2022-10-17T03:04:11.895Z,26.39
2022-10-17T03:06:13.642Z,26.25
2022-10-17T03:08:15.515Z,26.54
2022-10-17T03:10:17.490Z,26.38
2022-10-17T03:12:19.180Z,26.04
2022-10-17T03:14:20.964Z,26.04
2022-10-17T03:16:22.672Z,26.42
2022-10-17T03:18:24.384Z,26.08
2022-10-17T03:20:26.145Z,26.25
2022-10-17T03:22:28.211Z,26.18
2022-10-17T03:24:30.146Z,26.17
2022-10-17T03:26:31.918Z,26.50
2022-10-17T03:28:34.146Z,26.05
2022-10-17T03:30:37.967Z,26.28
2022-10-17T03:32:39.693Z,26.13
2022-10-17T03:34:41.426Z,26.50
2022-10-17T03:36:43.209Z,26.18
2022-10-17T03:38:45.140Z,26.42
2022-10-17T03:40:55.130Z,26.15
2022-10-17T03:42:56.849Z,26.55
2022-10-17T03:44:58.602Z,26.47
2022-10-17T03:47:00.363Z,26.41
2022-10-17T03:49:02.150Z,26.23
2022-10-17T03:51:05.959Z,26.66
2022-10-17T03:53:07.846Z,26.77
2022-10-17T03:55:09.651Z,26.77
2022-10-17T03:57:11.294Z,26.53
2022-10-17T03:59:14.079Z,26.48
2022-10-17T04:01:16.689Z,26.60
2022-10-17T04:03:18.883Z,26.60
2022-10-17T04:05:20.533Z,26.51
2022-10-17T04:07:22.357Z,26.67
2022-10-17T04:09:24.073Z,26.70
2022-10-17T04:11:25.749Z,26.51
2022-10-17T04:13:27.918Z,26.45
2022-10-17T04:15:29.622Z,26.27
2022-10-17T04:17:35.909Z,27.41
2022-10-17T04:19:39.998Z,26.58
2022-10-17T04:21:41.726Z,26.91
2022-10-17T04:23:43.412Z,26.58
2022-10-17T04:25:45.111Z,26.90
2022-10-17T04:27:46.839Z,26.93
2022-10-17T04:29:48.587Z,26.91
2022-10-17T04:31:50.322Z,26.59
2022-10-17T04:33:51.935Z,27.13
2022-10-17T04:35:57.529Z,27.08
2022-10-17T04:37:59.319Z,26.60
2022-10-17T04:40:01.030Z,26.93
2022-10-17T04:42:02.771Z,26.95
2022-10-17T04:44:04.473Z,26.81
2022-10-17T04:46:09.539Z,26.80
2022-10-17T04:48:11.211Z,26.82
2022-10-17T04:50:12.865Z,26.71
2022-10-17T04:52:14.558Z,26.81
2022-10-17T04:54:16.313Z,26.77
2022-10-17T04:56:19.600Z,26.31
2022-10-17T04:58:21.519Z,26.70
2022-10-17T05:00:23.184Z,26.53
2022-10-17T05:02:24.945Z,26.63
2022-10-17T05:04:26.686Z,26.22
2022-10-17T05:06:28.405Z,26.21
2022-10-17T05:08:30.044Z,26.22
2022-10-17T05:10:42.512Z,26.24
2022-10-17T05:12:44.137Z,26.63
2022-10-17T05:14:45.762Z,26.35
2022-10-17T05:16:47.423Z,26.60
2022-10-17T05:18:52.829Z,26.40
2022-10-17T05:20:55.017Z,26.35
2022-10-17T05:22:59.223Z,26.42
2022-10-17T05:25:00.935Z,26.57
2022-10-17T05:27:02.611Z,26.25
2022-10-17T05:29:04.397Z,26.43
2022-10-17T05:31:06.499Z,26.41
2022-10-17T05:33:08.187Z,26.54
2022-10-17T05:35:09.853Z,26.36
2022-10-17T05:37:11.501Z,26.20
2022-10-17T05:39:13.657Z,26.52
2022-10-17T05:41:15.347Z,26.38
2022-10-17T05:43:16.995Z,26.59
2022-10-17T05:45:18.739Z,26.60
2022-10-17T05:47:20.465Z,26.41
2022-10-17T05:49:32.495Z,26.59
2022-10-17T05:51:34.921Z,26.37
2022-10-17T05:53:40.072Z,26.44
2022-10-17T05:55:41.727Z,26.32
2022-10-17T05:57:43.363Z,26.07
2022-10-17T05:59:45.059Z,26.18
2022-10-17T06:01:46.927Z,26.44
2022-10-17T06:03:48.665Z,26.31
2022-10-17T06:05:50.327Z,26.44
2022-10-17T06:07:52.008Z,26.02
2022-10-17T06:09:53.737Z,26.07
2022-10-17T06:11:55.428Z,26.57
2022-10-17T06:13:57.087Z,26.25
2022-10-17T06:15:58.747Z,26.54
2022-10-17T06:18:00.431Z,26.29
2022-10-17T06:20:02.263Z,26.33
2022-10-17T06:22:03.934Z,26.27
2022-10-17T06:24:05.651Z,26.37
2022-10-17T06:26:07.360Z,26.09
2022-10-17T06:28:09.246Z,26.15
2022-10-17T06:30:10.917Z,26.56
2022-10-17T06:32:14.994Z,26.62
2022-10-17T06:34:16.843Z,26.35
2022-10-17T06:36:18.972Z,26.18
2022-10-17T06:38:20.684Z,26.18
2022-10-17T06:40:22.331Z,26.42
2022-10-17T06:42:24.055Z,26.33
2022-10-17T06:44:25.729Z,26.74
2022-10-17T06:46:27.455Z,26.70
2022-10-17T06:48:29.259Z,26.27
2022-10-17T06:50:30.888Z,26.56
2022-10-17T06:52:32.611Z,26.58
2022-10-17T06:54:34.367Z,26.66
2022-10-17T06:56:36.062Z,26.75
2022-10-17T06:58:38.737Z,26.66
2022-10-17T07:00:40.472Z,26.33
2022-10-17T07:02:43.169Z,26.45
2022-10-17T07:04:46.288Z,26.28
2022-10-17T07:06:47.996Z,26.30
2022-10-17T07:08:49.804Z,26.66
2022-10-17T07:10:51.589Z,26.61
2022-10-17T07:12:53.251Z,26.71
2022-10-17T07:14:54.967Z,26.51
2022-10-17T07:16:56.627Z,26.72
2022-10-17T07:18:58.243Z,26.63
2022-10-17T07:20:59.980Z,26.43
2022-10-17T07:23:01.626Z,26.88
2022-10-17T07:25:04.113Z,26.82
2022-10-17T07:27:05.738Z,26.53
2022-10-17T07:29:07.460Z,26.80
2022-10-17T07:31:14.002Z,26.78
2022-10-17T07:33:15.611Z,27.03
2022-10-17T07:35:17.252Z,26.92
2022-10-17T07:37:18.943Z,26.80
2022-10-17T07:39:20.649Z,27.03
2022-10-17T07:41:23.502Z,26.50
2022-10-17T07:43:25.516Z,26.93
2022-10-17T07:45:27.150Z,26.98
2022-10-17T07:47:28.997Z,26.71
2022-10-17T07:49:30.935Z,27.05
2022-10-17T07:51:32.799Z,26.77
2022-10-17T07:53:38.307Z,27.01
2022-10-17T07:55:40.765Z,26.87
2022-10-17T07:57:42.408Z,27.09
2022-10-17T07:59:44.031Z,27.30
2022-10-17T08:01:45.714Z,27.20
2022-10-17T08:03:47.600Z,27.27
2022-10-17T08:05:49.250Z,26.95
2022-10-17T08:07:50.911Z,27.18
2022-10-17T08:09:52.620Z,27.05
2022-10-17T08:11:54.376Z,27.08
2022-10-17T08:13:56.092Z,27.51
2022-10-17T08:16:05.647Z,27.25
2022-10-17T08:18:07.377Z,27.31
2022-10-17T08:20:09.992Z,27.51
2022-10-17T08:22:11.683Z,27.22
2022-10-17T08:24:13.357Z,27.56
2022-10-17T08:26:15.031Z,27.18
2022-10-17T08:28:16.688Z,27.63
2022-10-17T08:30:18.431Z,27.49
2022-10-17T08:32:23.413Z,27.62
2022-10-17T08:34:25.056Z,27.70
2022-10-17T08:36:26.717Z,27.80
2022-10-17T08:38:35.117Z,27.52
2022-10-17T08:40:37.353Z,27.59
2022-10-17T08:43:18.608Z,27.32
2022-10-17T08:45:41.136Z,27.82
2022-10-17T08:47:48.401Z,27.79
2022-10-17T08:49:57.293Z,27.96
2022-10-17T08:52:04.461Z,27.52
2022-10-17T08:54:22.731Z,27.74
2022-10-17T08:56:49.850Z,27.97
2022-10-17T08:58:48.248Z,27.80
2022-10-17T09:01:25.558Z,27.88
2022-10-17T09:03:54.216Z,27.86
2022-10-17T09:06:23.135Z,28.09
2022-10-17T09:08:46.611Z,27.89
2022-10-17T09:11:00.194Z,27.73
2022-10-17T09:13:08.038Z,27.97
2022-10-17T09:15:36.655Z,28.13
2022-10-17T09:18:02.267Z,28.34
2022-10-17T09:20:19.951Z,28.41
2022-10-17T09:22:25.467Z,28.59
2022-10-17T09:24:41.770Z,28.66
2022-10-17T09:26:45.178Z,28.63
2022-10-17T09:28:52.193Z,28.91
2022-10-17T09:31:06.762Z,28.78
2022-10-17T09:33:53.308Z,29.12
2022-10-17T09:35:57.095Z,29.17
2022-10-17T09:37:58.809Z,29.09
2022-10-17T09:40:00.476Z,29.12
2022-10-17T09:42:02.225Z,29.28
2022-10-17T09:44:12.819Z,29.72
2022-10-17T09:46:37.380Z,29.52
2022-10-17T09:48:42.591Z,29.58
2022-10-17T09:50:44.513Z,29.56
2022-10-17T09:52:46.319Z,29.93
2022-10-17T09:55:15.336Z,29.70
2022-10-17T09:57:18.059Z,29.79
2022-10-17T09:59:36.627Z,29.94
2022-10-17T10:01:38.409Z,29.91
2022-10-17T10:03:40.301Z,30.45
2022-10-17T10:05:42.762Z,30.49
2022-10-17T10:07:46.332Z,30.44
2022-10-17T10:09:48.972Z,30.62
2022-10-17T10:11:52.310Z,30.74
2022-10-17T10:13:54.009Z,30.61
2022-10-17T10:16:12.391Z,30.75
2022-10-17T10:18:26.187Z,30.58
2022-10-17T10:20:36.155Z,30.71
2022-10-17T10:22:37.931Z,30.65
2022-10-17T10:24:39.539Z,30.73
2022-10-17T10:26:46.212Z,30.59
2022-10-17T10:29:02.140Z,30.58
2022-10-17T10:31:05.730Z,30.42
2022-10-17T10:33:10.714Z,30.90
2022-10-17T10:35:23.263Z,30.83
2022-10-17T10:37:38.935Z,31.01
2022-10-17T10:39:47.107Z,31.13
2022-10-17T10:41:49.143Z,31.02
2022-10-17T10:43:51.661Z,31.03
2022-10-17T10:45:53.435Z,31.04
2022-10-17T10:48:01.535Z,30.99
2022-10-17T10:50:24.396Z,31.43
2022-10-17T10:52:35.440Z,31.18
2022-10-17T10:54:43.382Z,31.18
2022-10-17T10:56:48.787Z,31.20
2022-10-17T10:59:03.412Z,31.18
2022-10-17T11:01:25.661Z,31.48
2022-10-17T11:03:33.009Z,31.07
2022-10-17T11:05:49.667Z,31.44
2022-10-17T11:07:59.627Z,31.27
2022-10-17T11:10:12.804Z,31.34
2022-10-17T11:12:27.514Z,31.41
2022-10-17T11:15:06.671Z,31.63
2022-10-17T11:17:10.846Z,31.76
2022-10-17T11:19:15.362Z,31.67
2022-10-17T11:21:37.105Z,31.75
2022-10-17T11:23:43.263Z,32.02
2022-10-17T11:25:44.909Z,31.96
2022-10-17T11:27:46.622Z,31.86
2022-10-17T11:29:48.287Z,31.88
2022-10-17T11:31:51.244Z,31.74
2022-10-17T11:33:54.702Z,31.73
2022-10-17T11:36:00.165Z,31.76
2022-10-17T11:38:04.342Z,31.83
2022-10-17T11:40:24.468Z,31.95
2022-10-17T11:42:29.302Z,32.30
2022-10-17T11:44:38.447Z,32.26
2022-10-17T11:46:40.106Z,32.03
2022-10-17T11:48:45.511Z,31.94
2022-10-17T11:53:23.278Z,32.06
2022-10-17T11:55:26.661Z,32.21
2022-10-17T11:57:43.139Z,32.43
2022-10-17T11:59:57.052Z,32.56
2022-10-17T12:02:03.916Z,32.51
2022-10-17T12:04:14.719Z,32.83
2022-10-17T12:06:36.547Z,32.47
2022-10-17T12:08:49.928Z,32.40
2022-10-17T12:11:28.846Z,32.21
2022-10-17T12:13:33.254Z,32.21
2022-10-17T12:15:34.972Z,32.29
2022-10-17T12:17:37.013Z,32.58
2022-10-17T12:19:38.733Z,32.76
2022-10-17T12:22:14.138Z,32.56
2022-10-17T12:24:31.806Z,33.05
2022-10-17T12:26:34.458Z,33.12
2022-10-17T12:28:46.729Z,33.13
2022-10-17T12:30:58.474Z,32.97
2022-10-17T12:33:12.304Z,32.69
2022-10-17T12:35:19.934Z,33.10
2022-10-17T12:37:43.224Z,32.86
2022-10-17T12:39:44.891Z,32.96
2022-10-17T12:41:46.541Z,33.52
2022-10-17T12:43:55.452Z,33.37
2022-10-17T12:46:01.050Z,33.38
2022-10-17T12:48:03.287Z,33.70
2022-10-17T12:50:28.607Z,32.51
2022-10-17T12:52:33.235Z,32.79
2022-10-17T12:54:47.958Z,32.83
2022-10-17T12:57:01.517Z,32.26
2022-10-17T12:59:16.960Z,32.37
2022-10-17T13:01:24.799Z,32.63
2022-10-17T13:03:29.119Z,32.57
2022-10-17T13:05:32.915Z,33.38
2022-10-17T13:07:35.379Z,32.82
2022-10-17T13:09:38.531Z,32.77
2022-10-17T13:11:40.683Z,33.21
2022-10-17T13:13:49.265Z,32.47
2022-10-17T13:15:52.707Z,33.58
2022-10-17T13:17:59.141Z,32.65
2022-10-17T13:20:00.783Z,33.02
2022-10-17T13:22:06.701Z,32.67
2022-10-17T13:24:27.653Z,32.66
2022-10-17T13:26:29.307Z,32.84
2022-10-17T13:28:31.869Z,33.24
2022-10-17T13:30:36.205Z,32.67
2022-10-17T13:32:39.195Z,32.49
2022-10-17T13:34:40.941Z,32.88
2022-10-17T13:36:45.512Z,33.14
2022-10-17T13:38:50.311Z,33.31
2022-10-17T13:40:57.925Z,33.39
2022-10-17T13:43:03.591Z,33.16
2022-10-17T13:45:10.510Z,33.11
2022-10-17T13:47:23.018Z,33.50
2022-10-17T13:49:35.267Z,33.30
2022-10-17T13:51:36.927Z,33.17
2022-10-17T13:53:39.486Z,33.55
2022-10-17T13:56:09.776Z,33.12
2022-10-17T13:58:19.292Z,33.25
2022-10-17T14:00:21.633Z,33.04
2022-10-17T14:02:24.625Z,33.03
2022-10-17T14:04:26.322Z,33.06
2022-10-17T14:06:28.203Z,31.88
2022-10-17T14:08:30.210Z,31.99
2022-10-17T14:10:37.474Z,31.83
2022-10-17T14:12:39.140Z,31.57
2022-10-17T14:14:58.384Z,31.80
2022-10-17T14:17:02.781Z,32.08
2022-10-17T14:19:05.020Z,32.04
2022-10-17T14:23:31.898Z,31.85
2022-10-17T14:25:38.525Z,32.02
2022-10-17T14:27:54.484Z,31.87
2022-10-17T14:29:57.646Z,31.81
2022-10-17T14:32:04.684Z,31.65
2022-10-17T14:34:06.363Z,30.99
2022-10-17T14:36:08.042Z,31.24
2022-10-17T14:38:12.634Z,31.03
2022-10-17T14:40:19.022Z,30.23
2022-10-17T14:42:21.603Z,30.73
2022-10-17T14:44:29.006Z,30.18
2022-10-17T14:46:30.683Z,30.92
2022-10-17T14:48:32.665Z,30.79
2022-10-17T14:50:34.396Z,31.02
2022-10-17T14:52:36.458Z,30.98
2022-10-17T14:54:38.261Z,31.07
2022-10-17T14:56:43.217Z,30.97
2022-10-17T14:58:45.021Z,30.83
2022-10-17T15:00:46.694Z,30.97
2022-10-17T15:02:49.134Z,31.19
2022-10-17T15:04:51.005Z,31.46
2022-10-17T15:06:55.733Z,31.50
2022-10-17T15:08:57.743Z,31.56
2022-10-17T15:10:59.445Z,31.64
2022-10-17T15:13:26.577Z,31.85
2022-10-17T15:15:23.496Z,32.40
2022-10-17T15:17:30.368Z,31.99
2022-10-17T15:19:32.126Z,32.11
2022-10-17T15:21:39.614Z,32.23
2022-10-17T15:23:44.932Z,32.12
2022-10-17T15:25:46.581Z,31.83
2022-10-17T15:27:48.228Z,32.03
2022-10-17T15:29:50.165Z,32.14
2022-10-17T15:31:51.830Z,32.24
2022-10-17T15:33:53.647Z,32.04
2022-10-17T15:35:55.408Z,32.01
2022-10-17T15:37:57.149Z,31.87
2022-10-17T15:39:58.799Z,32.21
2022-10-17T15:42:00.478Z,31.69
2022-10-17T15:44:02.152Z,32.20
2022-10-17T15:46:03.853Z,32.49
2022-10-17T15:48:06.758Z,32.57
2022-10-17T15:50:11.139Z,32.45
2022-10-17T15:52:12.609Z,32.44
2022-10-17T15:54:14.364Z,32.67
2022-10-17T15:56:24.120Z,31.42
2022-10-17T15:58:25.768Z,31.13
2022-10-17T16:00:27.519Z,30.15
2022-10-17T16:02:29.560Z,30.56
2022-10-17T16:04:31.802Z,30.24
2022-10-17T16:06:33.454Z,29.87
2022-10-17T16:08:35.100Z,30.02
2022-10-17T16:10:37.646Z,30.36
2022-10-17T16:12:39.470Z,30.72
2022-10-17T16:14:41.257Z,30.61
2022-10-17T16:16:43.198Z,31.08
2022-10-17T16:18:44.866Z,31.52
2022-10-17T16:20:46.857Z,30.95
2022-10-17T16:22:48.534Z,31.12
2022-10-17T16:24:50.336Z,33.00
2022-10-17T16:26:52.215Z,31.10
2022-10-17T16:28:53.929Z,31.46
2022-10-17T16:30:55.752Z,31.42
2022-10-17T16:32:58.782Z,32.28
2022-10-17T16:35:00.616Z,31.50
2022-10-17T16:37:02.378Z,30.50
2022-10-17T16:39:04.139Z,29.71
2022-10-17T16:41:09.295Z,30.27
2022-10-17T16:43:12.344Z,29.67
2022-10-17T16:45:19.153Z,28.91
2022-10-17T16:47:21.017Z,29.71
2022-10-17T16:49:22.721Z,30.13
2022-10-17T16:51:24.597Z,30.67
2022-10-17T16:53:26.393Z,30.32
2022-10-17T16:55:28.168Z,29.58
2022-10-17T16:57:29.978Z,29.63
2022-10-17T16:59:31.736Z,30.48
2022-10-17T17:01:33.381Z,30.20
2022-10-17T17:03:39.112Z,29.55
2022-10-17T17:05:40.865Z,29.92
2022-10-17T17:07:43.223Z,29.68
2022-10-17T17:09:44.983Z,29.75
2022-10-17T17:11:46.832Z,29.59
2022-10-17T17:13:48.488Z,29.54
2022-10-17T17:15:50.455Z,29.55
2022-10-17T17:17:55.324Z,29.79
2022-10-17T17:19:59.011Z,29.47
2022-10-17T17:22:00.731Z,29.96
2022-10-17T17:24:03.035Z,29.83
2022-10-17T17:26:09.327Z,29.63
2022-10-17T17:28:11.076Z,29.59
2022-10-17T17:30:12.752Z,29.71
2022-10-17T17:32:14.452Z,30.47
2022-10-17T17:34:18.135Z,30.34
2022-10-17T17:36:22.524Z,30.80
2022-10-17T17:38:24.399Z,30.00
2022-10-17T17:40:26.084Z,30.16
2022-10-17T17:42:27.834Z,30.09
2022-10-17T17:44:29.571Z,30.36
2022-10-17T17:46:32.634Z,29.33
2022-10-17T17:48:36.818Z,30.74
2022-10-17T17:50:39.350Z,31.81
2022-10-17T17:52:41.037Z,32.33
2022-10-17T17:54:42.708Z,32.39
2022-10-17T17:56:44.493Z,32.61
2022-10-17T17:58:48.254Z,32.68
2022-10-17T18:00:49.986Z,32.71
2022-10-17T18:02:51.700Z,32.63
2022-10-17T18:04:53.421Z,32.69
2022-10-17T18:06:55.257Z,32.45
2022-10-17T18:08:57.922Z,32.84
2022-10-17T18:10:59.615Z,32.71
2022-10-17T18:13:01.370Z,33.25
2022-10-17T18:15:03.612Z,33.93
2022-10-17T18:17:05.327Z,33.39
2022-10-17T18:19:08.034Z,33.63
2022-10-17T18:21:10.517Z,34.15
2022-10-17T18:23:12.258Z,34.12
2022-10-17T18:25:15.026Z,34.34
2022-10-17T18:27:18.941Z,34.13
2022-10-17T18:29:21.069Z,34.47
2022-10-17T18:31:24.363Z,33.96
2022-10-17T18:33:26.032Z,34.20
2022-10-17T18:35:27.727Z,34.20
2022-10-17T18:37:29.439Z,34.17
2022-10-17T18:39:31.134Z,34.15
2022-10-17T18:41:32.984Z,34.56
2022-10-17T18:43:38.753Z,34.83
2022-10-17T18:45:40.451Z,33.52
2022-10-17T18:47:44.418Z,34.40
2022-10-17T18:49:46.091Z,34.16
2022-10-17T18:51:47.830Z,34.91
2022-10-17T18:53:54.303Z,34.65
2022-10-17T18:55:56.059Z,34.19
2022-10-17T18:57:57.739Z,34.88
2022-10-17T18:59:59.597Z,35.19
2022-10-17T19:02:01.358Z,34.89
2022-10-17T19:04:03.037Z,35.15
2022-10-17T19:06:06.888Z,35.05
2022-10-17T19:08:08.569Z,35.02
2022-10-17T19:10:10.239Z,35.27
2022-10-17T19:12:11.921Z,35.09
2022-10-17T19:14:13.803Z,35.04
2022-10-17T19:16:17.998Z,35.43
2022-10-17T19:18:19.696Z,35.37
2022-10-17T19:20:21.374Z,35.07
2022-10-17T19:22:23.072Z,35.32
2022-10-17T19:24:25.847Z,35.42
2022-10-17T19:26:28.666Z,35.27
2022-10-17T19:28:30.404Z,35.34
2022-10-17T19:30:32.215Z,35.52
2022-10-17T19:32:34.287Z,35.19
2022-10-17T19:34:36.650Z,35.28
2022-10-17T19:36:38.535Z,35.47
2022-10-17T19:38:40.270Z,35.74
2022-10-17T19:40:42.027Z,35.82
2022-10-17T19:42:43.776Z,35.66
2022-10-17T19:44:45.634Z,36.01
2022-10-17T19:46:47.352Z,36.03
2022-10-17T19:48:49.343Z,35.66
2022-10-17T19:50:51.136Z,35.87
2022-10-17T19:52:52.833Z,35.82
2022-10-17T19:54:54.501Z,35.67
2022-10-17T19:56:56.223Z,36.11
2022-10-17T19:58:58.068Z,35.94
2022-10-17T20:01:00.051Z,36.13
2022-10-17T20:03:01.852Z,36.37
2022-10-17T20:05:18.024Z,35.91
2022-10-17T20:07:20.028Z,35.89
2022-10-17T20:09:21.715Z,36.04
2022-10-17T20:11:24.837Z,36.39
2022-10-17T20:13:26.522Z,36.09
2022-10-17T20:15:28.204Z,36.08
2022-10-17T20:17:31.087Z,36.57
2022-10-17T20:19:34.047Z,36.61
2022-10-17T20:21:35.846Z,36.40
2022-10-17T20:23:38.041Z,36.41
2022-10-17T20:25:39.674Z,36.35
2022-10-17T20:27:41.356Z,36.31
2022-10-17T20:29:43.054Z,36.68
2022-10-17T20:31:45.296Z,36.27
2022-10-17T20:33:46.983Z,36.28
2022-10-17T20:35:48.879Z,36.48
2022-10-17T20:37:50.586Z,36.39
2022-10-17T20:40:10.721Z,36.42
2022-10-17T20:42:14.106Z,36.36
2022-10-17T20:44:15.785Z,36.64
2022-10-17T20:46:34.948Z,36.37
2022-10-17T20:48:37.196Z,36.30
2022-10-17T20:50:38.962Z,36.63
2022-10-17T20:52:40.628Z,36.67
2022-10-17T20:54:42.314Z,36.58
2022-10-17T20:56:44.035Z,36.43
2022-10-17T20:58:45.722Z,36.73
2022-10-17T21:00:47.435Z,36.42
2022-10-17T21:02:49.206Z,36.63
2022-10-17T21:04:51.045Z,36.55
2022-10-17T21:06:52.719Z,36.21
2022-10-17T21:08:54.957Z,36.12
2022-10-17T21:11:26.726Z,36.37
2022-10-17T21:13:28.389Z,36.80
2022-10-17T21:15:30.185Z,36.68
2022-10-17T21:17:31.922Z,36.30
2022-10-17T21:19:33.608Z,36.71
2022-10-17T21:21:36.829Z,36.64
2022-10-17T21:23:38.666Z,36.61
2022-10-17T21:25:40.846Z,36.51
2022-10-17T21:27:42.649Z,36.88
2022-10-17T21:29:44.391Z,36.36
2022-10-17T21:31:46.112Z,36.69
2022-10-17T21:33:53.721Z,36.84
2022-10-17T21:35:55.474Z,36.81
2022-10-17T21:37:57.155Z,36.93
2022-10-17T21:39:58.859Z,36.35
2022-10-17T21:42:00.620Z,36.75
2022-10-17T21:44:07.176Z,36.21
2022-10-17T21:46:16.564Z,36.43
2022-10-17T21:48:18.363Z,36.28
2022-10-17T21:50:20.084Z,36.53
2022-10-17T21:52:21.807Z,36.36
2022-10-17T21:54:23.625Z,36.67
2022-10-17T21:56:26.807Z,36.27
2022-10-17T21:58:28.700Z,36.33
2022-10-17T22:00:30.489Z,36.59
2022-10-17T22:02:32.369Z,36.53
2022-10-17T22:04:34.376Z,36.49
2022-10-17T22:06:40.094Z,36.32
2022-10-17T22:08:42.214Z,36.57
2022-10-17T22:10:43.885Z,36.35
2022-10-17T22:12:45.588Z,36.32
2022-10-17T22:14:47.283Z,36.01
2022-10-17T22:16:49.093Z,36.53
2022-10-17T22:18:50.889Z,36.44
2022-10-17T22:20:52.608Z,36.29
2022-10-17T22:22:54.296Z,36.56
2022-10-17T22:24:56.095Z,36.27
2022-10-17T22:26:57.830Z,36.18
2022-10-17T22:28:59.661Z,36.23
2022-10-17T22:31:01.511Z,36.13
2022-10-17T22:33:03.300Z,36.42
2022-10-17T22:35:05.394Z,35.98
2022-10-17T22:37:07.068Z,36.39
2022-10-17T22:39:09.024Z,36.26
2022-10-17T22:41:10.707Z,36.05
2022-10-17T22:43:13.189Z,35.98
2022-10-17T22:45:15.004Z,36.50
2022-10-17T22:47:16.750Z,35.85
2022-10-17T22:49:18.460Z,35.93
2022-10-17T22:51:20.211Z,36.06
2022-10-17T22:53:22.344Z,35.91
2022-10-17T22:55:24.019Z,35.68
2022-10-17T22:57:25.789Z,36.09
2022-10-17T22:59:27.450Z,36.09
2022-10-17T23:01:29.138Z,35.87
2022-10-17T23:03:31.129Z,35.65
2022-10-17T23:05:32.796Z,35.97
2022-10-17T23:07:34.478Z,35.64
2022-10-17T23:09:36.135Z,35.56
2022-10-17T23:11:37.916Z,35.92
2022-10-17T23:13:39.663Z,35.98
2022-10-17T23:15:41.597Z,35.82
2022-10-17T23:17:43.341Z,35.71
2022-10-17T23:19:45.168Z,35.61
2022-10-17T23:21:46.913Z,35.43
2022-10-17T23:23:48.849Z,35.71
2022-10-17T23:25:50.723Z,35.79
2022-10-17T23:27:52.411Z,35.35
2022-10-17T23:29:54.138Z,35.76
2022-10-17T23:31:56.007Z,35.31
2022-10-17T23:33:58.429Z,35.53
2022-10-17T23:36:03.088Z,35.46
2022-10-17T23:38:04.869Z,35.46
2022-10-17T23:40:06.987Z,35.58
2022-10-17T23:42:08.760Z,35.48
2022-10-17T23:44:11.213Z,35.16
2022-10-17T23:46:12.981Z,35.13
2022-10-17T23:48:14.609Z,35.33
2022-10-17T23:50:16.439Z,35.36
2022-10-17T23:52:18.243Z,35.27
2022-10-17T23:54:20.024Z,35.39
2022-10-17T23:56:21.692Z,35.49
2022-10-17T23:58:23.343Z,35.59
